createdAt,value
2019-02-27T00:00:20.998Z,101475.00
2019-02-27T00:02:50.694Z,101465.00
2019-02-27T00:05:20.407Z,101468.00
2019-02-27T00:07:53.936Z,101470.00
2019-02-27T00:10:21.499Z,101475.00
2019-02-27T00:12:51.918Z,101483.00
2019-02-27T00:15:22.698Z,101474.00
2019-02-27T00:17:52.180Z,101477.00
2019-02-27T00:20:21.845Z,101480.00
2019-02-27T00:22:51.641Z,101465.00
2019-02-27T00:25:21.550Z,101467.00
2019-02-27T00:27:52.684Z,101472.00
2019-02-27T00:30:23.816Z,101470.00
2019-02-27T00:32:53.502Z,101475.00
2019-02-27T00:35:23.156Z,101471.00
2019-02-27T00:37:54.625Z,101472.00
2019-02-27T00:40:24.284Z,101456.00
2019-02-27T00:42:55.084Z,101460.00
2019-02-27T00:45:26.394Z,101452.00
2019-02-27T00:47:56.184Z,101450.00
2019-02-27T00:50:30.097Z,101441.00
2019-02-27T00:53:00.225Z,101453.00
2019-02-27T00:55:29.998Z,101448.00
2019-02-27T00:58:00.604Z,101436.00
2019-02-27T01:00:30.295Z,101436.00
2019-02-27T01:02:59.971Z,101432.00
2019-02-27T01:05:30.067Z,101426.00
2019-02-27T01:07:59.769Z,101429.00
2019-02-27T01:10:29.445Z,101414.00
2019-02-27T01:12:59.131Z,101414.00
2019-02-27T01:15:28.820Z,101422.00
2019-02-27T01:17:58.483Z,101424.00
2019-02-27T01:20:28.163Z,101424.00
2019-02-27T01:22:57.858Z,101412.00
2019-02-27T01:25:29.558Z,101406.00
2019-02-27T01:28:01.611Z,101405.00
2019-02-27T01:30:31.768Z,101402.00
2019-02-27T01:33:04.879Z,101393.00
2019-02-27T01:35:34.799Z,101389.00
2019-02-27T01:38:05.297Z,101399.00
2019-02-27T01:40:35.507Z,101397.00
2019-02-27T01:43:06.272Z,101387.00
2019-02-27T01:45:36.328Z,101391.00
2019-02-27T01:48:08.911Z,101386.00
2019-02-27T01:50:37.983Z,101388.00
2019-02-27T01:53:11.960Z,101375.00
2019-02-27T01:55:43.286Z,101379.00
2019-02-27T01:58:12.959Z,101369.00
2019-02-27T02:00:44.242Z,101369.00
2019-02-27T02:03:14.358Z,101364.00
2019-02-27T02:05:44.309Z,101359.00
2019-02-27T02:08:14.659Z,101362.00
2019-02-27T02:10:45.047Z,101351.00
2019-02-27T02:13:19.068Z,101350.00
2019-02-27T02:16:14.014Z,101349.00
2019-02-27T02:19:21.386Z,101351.00
2019-02-27T02:22:14.189Z,101344.00
2019-02-27T02:25:00.336Z,101352.00
2019-02-27T02:28:01.634Z,101340.00
2019-02-27T02:30:47.613Z,101340.00
2019-02-27T02:33:45.662Z,101330.00
2019-02-27T02:36:40.554Z,101318.00
2019-02-27T02:39:23.514Z,101331.00
2019-02-27T02:42:00.033Z,101325.00
2019-02-27T02:44:37.807Z,101312.00
2019-02-27T02:47:21.523Z,101319.00
2019-02-27T02:50:07.514Z,101300.00
2019-02-27T02:53:00.825Z,101301.00
2019-02-27T02:55:49.518Z,101303.00
2019-02-27T02:58:29.033Z,101304.00
2019-02-27T03:01:15.167Z,101293.00
2019-02-27T03:03:53.367Z,101293.00
2019-02-27T03:06:39.256Z,101289.00
2019-02-27T03:09:31.824Z,101281.00
2019-02-27T03:12:14.301Z,101283.00
2019-02-27T03:14:54.550Z,101290.00
2019-02-27T03:18:05.419Z,101273.00
2019-02-27T03:20:51.822Z,101280.00
2019-02-27T03:23:52.577Z,101277.00
2019-02-27T03:26:33.822Z,101268.00
2019-02-27T03:29:41.176Z,101268.00
2019-02-27T03:32:26.922Z,101268.00
2019-02-27T03:35:27.465Z,101260.00
2019-02-27T03:38:07.648Z,101249.00
2019-02-27T03:40:53.102Z,101256.00
2019-02-27T03:43:50.346Z,101245.00
2019-02-27T03:46:46.830Z,101257.00
2019-02-27T03:49:40.666Z,101250.00
2019-02-27T03:52:39.303Z,101245.00
2019-02-27T03:55:32.843Z,101247.00
2019-02-27T03:58:15.156Z,101238.00
2019-02-27T04:01:05.823Z,101236.00
2019-02-27T04:03:39.893Z,101233.00
2019-02-27T04:06:37.995Z,101233.00
2019-02-27T04:09:09.230Z,101222.00
2019-02-27T04:11:42.613Z,101225.00
2019-02-27T04:14:40.522Z,101217.00
2019-02-27T04:17:06.913Z,101212.00
2019-02-27T04:19:39.295Z,101216.00
2019-02-27T04:22:07.810Z,101217.00
2019-02-27T04:24:37.482Z,101213.00
2019-02-27T04:27:07.147Z,101209.00
2019-02-27T04:29:40.764Z,101210.00
2019-02-27T04:32:09.569Z,101211.00
2019-02-27T04:34:39.598Z,101218.00
2019-02-27T04:37:09.275Z,101223.00
2019-02-27T04:39:38.928Z,101213.00
2019-02-27T04:42:08.584Z,101220.00
2019-02-27T04:44:38.901Z,101219.00
2019-02-27T04:47:09.421Z,101218.00
2019-02-27T04:49:39.096Z,101212.00
2019-02-27T04:52:08.796Z,101223.00
2019-02-27T04:54:41.306Z,101222.00
2019-02-27T04:57:09.762Z,101220.00
2019-02-27T04:59:39.438Z,101226.00
2019-02-27T05:02:09.102Z,101211.00
2019-02-27T05:04:38.766Z,101224.00
2019-02-27T05:07:08.440Z,101217.00
2019-02-27T05:09:38.094Z,101215.00
2019-02-27T05:12:08.011Z,101209.00
2019-02-27T05:14:37.686Z,101208.00
2019-02-27T05:17:07.343Z,101207.00
2019-02-27T05:19:37.747Z,101207.00
2019-02-27T05:22:07.679Z,101210.00
2019-02-27T05:24:40.639Z,101213.00
2019-02-27T05:27:08.732Z,101205.00
2019-02-27T05:29:38.419Z,101203.00
2019-02-27T05:32:08.080Z,101192.00
2019-02-27T05:34:57.026Z,100992.00
2019-02-27T05:37:28.785Z,101179.00
2019-02-27T05:39:58.448Z,101179.00
2019-02-27T05:42:28.119Z,101173.00
2019-02-27T05:44:57.798Z,101175.00
2019-02-27T05:47:27.474Z,101180.00
2019-02-27T05:50:00.673Z,101188.00
2019-02-27T05:52:29.809Z,101182.00
2019-02-27T05:54:59.485Z,101182.00
2019-02-27T05:57:29.165Z,101182.00
2019-02-27T06:00:02.240Z,101183.00
2019-02-27T06:02:33.633Z,101189.00
2019-02-27T06:05:04.128Z,101198.00
2019-02-27T06:07:33.792Z,101186.00
2019-02-27T06:10:04.060Z,101189.00
2019-02-27T06:12:33.900Z,101182.00
2019-02-27T06:15:04.364Z,101189.00
2019-02-27T06:17:43.187Z,101189.00
2019-02-27T06:20:08.011Z,101181.00
2019-02-27T06:22:38.479Z,101178.00
2019-02-27T06:25:21.667Z,101180.00
2019-02-27T06:27:46.549Z,101181.00
2019-02-27T06:30:19.861Z,101178.00
2019-02-27T06:32:49.595Z,101182.00
2019-02-27T06:35:22.391Z,101184.00
2019-02-27T06:37:52.266Z,101173.00
2019-02-27T06:40:21.963Z,101184.00
2019-02-27T06:42:53.860Z,101185.00
2019-02-27T06:45:23.027Z,101178.00
2019-02-27T06:47:52.714Z,101184.00
2019-02-27T06:50:25.174Z,101180.00
2019-02-27T06:52:53.917Z,101195.00
2019-02-27T06:55:25.464Z,101194.00
2019-02-27T06:57:55.206Z,101191.00
2019-02-27T07:00:28.684Z,101193.00
2019-02-27T07:02:59.838Z,101189.00
2019-02-27T07:05:29.507Z,101184.00
2019-02-27T07:07:59.179Z,101178.00
2019-02-27T07:10:28.854Z,101196.00
2019-02-27T07:12:58.517Z,101185.00
2019-02-27T07:15:29.372Z,101184.00
2019-02-27T07:17:59.065Z,101183.00
2019-02-27T07:20:28.543Z,101187.00
2019-02-27T07:22:58.318Z,101180.00
2019-02-27T07:25:28.054Z,101186.00
2019-02-27T07:27:57.718Z,101175.00
2019-02-27T07:30:27.365Z,101179.00
2019-02-27T07:32:57.041Z,101179.00
2019-02-27T07:35:29.144Z,101117.00
2019-02-27T07:37:58.148Z,101174.00
2019-02-27T07:40:27.817Z,101174.00
2019-02-27T07:42:57.480Z,101174.00
2019-02-27T07:45:27.157Z,101159.00
2019-02-27T07:47:57.179Z,101176.00
2019-02-27T07:50:27.087Z,101164.00
2019-02-27T07:52:58.091Z,101169.00
2019-02-27T07:55:28.514Z,101165.00
2019-02-27T07:57:59.244Z,101166.00
2019-02-27T08:00:29.273Z,101164.00
2019-02-27T08:02:58.917Z,101173.00
2019-02-27T08:05:31.699Z,100924.00
2019-02-27T08:08:01.522Z,101166.00
2019-02-27T08:10:31.164Z,101164.00
2019-02-27T08:13:03.822Z,101173.00
2019-02-27T08:15:34.963Z,101164.00
2019-02-27T08:18:04.712Z,101177.00
2019-02-27T08:20:34.556Z,101171.00
2019-02-27T08:23:04.251Z,101156.00
2019-02-27T08:25:33.918Z,101152.00
2019-02-27T08:28:03.601Z,101160.00
2019-02-27T08:30:33.264Z,101167.00
2019-02-27T08:33:08.218Z,101165.00
2019-02-27T08:35:35.965Z,101157.00
2019-02-27T08:38:07.350Z,101163.00
2019-02-27T08:40:36.985Z,101160.00
2019-02-27T08:43:06.767Z,101153.00
2019-02-27T08:45:37.671Z,101160.00
2019-02-27T08:48:07.350Z,101169.00
2019-02-27T08:50:37.021Z,101161.00
2019-02-27T08:53:07.016Z,101154.00
2019-02-27T08:55:39.130Z,101155.00
2019-02-27T08:58:08.064Z,101160.00
2019-02-27T09:00:38.575Z,101159.00
2019-02-27T09:03:08.939Z,101145.00
2019-02-27T09:05:39.307Z,101155.00
2019-02-27T09:08:10.863Z,101141.00
2019-02-27T09:10:41.414Z,101149.00
2019-02-27T09:13:11.067Z,101152.00
2019-02-27T09:15:41.686Z,101147.00
2019-02-27T09:18:14.672Z,100917.00
2019-02-27T09:20:44.241Z,101154.00
2019-02-27T09:23:13.919Z,101139.00
2019-02-27T09:25:44.555Z,101143.00
2019-02-27T09:28:14.214Z,101144.00
2019-02-27T09:30:46.177Z,101142.00
2019-02-27T09:33:17.063Z,101138.00
2019-02-27T09:35:47.295Z,101132.00
2019-02-27T09:38:17.097Z,101138.00
2019-02-27T09:40:46.748Z,101134.00
2019-02-27T09:43:16.403Z,101136.00
2019-02-27T09:45:48.131Z,101143.00
2019-02-27T09:48:20.134Z,101132.00
2019-02-27T09:50:49.805Z,101131.00
2019-02-27T09:53:19.567Z,101126.00
2019-02-27T09:55:53.301Z,101128.00
2019-02-27T09:58:22.747Z,101134.00
2019-02-27T10:01:00.713Z,101135.00
2019-02-27T10:03:28.466Z,101128.00
2019-02-27T10:05:58.119Z,101126.00
2019-02-27T10:08:27.836Z,101123.00
2019-02-27T10:10:57.509Z,101112.00
2019-02-27T10:13:27.376Z,101124.00
2019-02-27T10:16:00.269Z,101115.00
2019-02-27T10:18:28.451Z,101117.00
2019-02-27T10:20:58.124Z,101106.00
2019-02-27T10:23:30.405Z,101115.00
2019-02-27T10:25:59.237Z,101101.00
2019-02-27T10:28:32.170Z,101107.00
2019-02-27T10:31:01.979Z,101104.00
2019-02-27T10:33:33.935Z,101108.00
2019-02-27T10:36:05.156Z,101099.00
2019-02-27T10:38:40.293Z,101101.00
2019-02-27T10:41:06.241Z,101101.00
2019-02-27T10:43:35.907Z,101109.00
2019-02-27T10:46:05.602Z,101116.00
2019-02-27T10:48:36.820Z,101106.00
2019-02-27T10:51:09.524Z,101108.00
2019-02-27T10:53:38.045Z,101104.00
2019-02-27T10:56:09.185Z,101104.00
2019-02-27T10:58:39.252Z,101093.00
2019-02-27T11:01:10.962Z,101102.00
2019-02-27T11:03:42.528Z,101083.00
2019-02-27T11:06:12.277Z,101083.00
2019-02-27T11:08:41.987Z,101082.00
2019-02-27T11:11:13.132Z,101081.00
2019-02-27T11:13:43.103Z,101090.00
2019-02-27T11:16:15.458Z,101081.00
2019-02-27T11:18:44.738Z,101077.00
2019-02-27T11:21:14.535Z,101065.00
2019-02-27T11:23:44.239Z,101066.00
2019-02-27T11:26:16.686Z,101045.00
2019-02-27T11:28:47.767Z,101064.00
2019-02-27T11:31:17.757Z,101062.00
2019-02-27T11:33:50.159Z,101072.00
2019-02-27T11:36:21.304Z,101071.00
2019-02-27T11:38:50.991Z,101054.00
2019-02-27T11:41:20.650Z,101065.00
2019-02-27T11:43:50.318Z,101063.00
2019-02-27T11:46:20.016Z,101054.00
2019-02-27T11:48:51.144Z,101068.00
2019-02-27T11:51:20.885Z,101055.00
2019-02-27T11:53:50.795Z,101052.00
2019-02-27T11:56:20.911Z,101046.00
2019-02-27T11:58:50.602Z,101044.00
2019-02-27T12:01:22.024Z,101029.00
2019-02-27T12:03:52.593Z,101033.00
2019-02-27T12:06:22.261Z,101031.00
2019-02-27T12:08:52.821Z,101024.00
2019-02-27T12:11:23.380Z,101017.00
2019-02-27T12:13:54.796Z,101022.00
2019-02-27T12:16:24.453Z,101015.00
2019-02-27T12:18:54.817Z,101009.00
2019-02-27T12:21:25.432Z,101006.00
2019-02-27T12:23:55.966Z,101004.00
2019-02-27T12:26:25.637Z,101002.00
2019-02-27T12:28:55.313Z,100998.00
2019-02-27T12:31:25.016Z,100995.00
2019-02-27T12:34:03.277Z,100989.00
2019-02-27T12:36:32.088Z,100984.00
2019-02-27T12:39:01.765Z,100982.00
2019-02-27T12:41:32.487Z,100987.00
2019-02-27T12:44:02.939Z,100977.00
2019-02-27T12:46:34.173Z,100978.00
2019-02-27T12:49:04.041Z,100971.00
2019-02-27T12:51:35.246Z,100966.00
2019-02-27T12:54:05.181Z,100974.00
2019-02-27T12:56:34.881Z,100972.00
2019-02-27T12:59:06.028Z,100968.00
2019-02-27T13:01:37.118Z,100961.00
2019-02-27T13:04:06.815Z,100958.00
2019-02-27T13:06:40.415Z,100948.00
2019-02-27T13:09:10.169Z,100951.00
2019-02-27T13:11:41.946Z,100947.00
2019-02-27T13:14:11.275Z,100944.00
2019-02-27T13:16:40.948Z,100955.00
2019-02-27T13:19:12.203Z,100940.00
2019-02-27T13:21:41.883Z,100936.00
2019-02-27T13:24:15.094Z,100929.00
2019-02-27T13:26:42.991Z,100917.00
2019-02-27T13:29:12.656Z,100915.00
2019-02-27T13:31:42.350Z,100916.00
2019-02-27T13:34:13.896Z,100911.00
2019-02-27T13:36:43.459Z,100914.00
2019-02-27T13:39:25.372Z,100913.00
2019-02-27T13:41:54.360Z,100905.00
2019-02-27T13:44:24.056Z,100914.00
2019-02-27T13:46:56.994Z,100902.00
2019-02-27T13:49:26.598Z,100910.00
2019-02-27T13:51:57.767Z,100897.00
2019-02-27T13:54:28.910Z,100896.00
2019-02-27T13:56:58.585Z,100893.00
2019-02-27T13:59:28.270Z,100892.00
2019-02-27T14:02:00.702Z,100892.00
2019-02-27T14:04:29.329Z,100890.00
2019-02-27T14:06:59.339Z,100891.00
2019-02-27T14:09:29.014Z,100883.00
2019-02-27T14:11:59.393Z,100886.00
2019-02-27T14:14:29.434Z,100888.00
2019-02-27T14:16:59.288Z,100881.00
2019-02-27T14:19:30.743Z,100880.00
2019-02-27T14:22:00.440Z,100877.00
2019-02-27T14:24:30.098Z,100872.00
2019-02-27T14:26:59.781Z,100870.00
2019-02-27T14:29:32.418Z,100871.00
2019-02-27T14:32:02.083Z,100863.00
2019-02-27T14:34:31.759Z,100868.00
2019-02-27T14:37:01.492Z,100853.00
2019-02-27T14:39:31.158Z,100857.00
2019-02-27T14:42:00.830Z,100852.00
2019-02-27T14:44:31.514Z,100859.00
2019-02-27T14:47:01.985Z,100853.00
2019-02-27T14:49:31.729Z,100861.00
2019-02-27T14:52:01.425Z,100849.00
2019-02-27T14:54:31.106Z,100851.00
2019-02-27T14:57:02.459Z,100857.00
2019-02-27T14:59:34.171Z,100846.00
2019-02-27T15:02:04.652Z,100846.00
2019-02-27T15:04:34.336Z,100844.00
2019-02-27T15:07:04.019Z,100833.00
2019-02-27T15:09:36.116Z,100827.00
2019-02-27T15:12:24.366Z,100827.00
2019-02-27T15:14:54.031Z,100811.00
2019-02-27T15:17:23.704Z,100796.00
2019-02-27T15:19:53.397Z,100796.00
2019-02-27T15:22:23.061Z,100796.00
2019-02-27T15:24:52.948Z,100797.00
2019-02-27T15:27:25.024Z,100791.00
2019-02-27T15:29:54.096Z,100791.00
2019-02-27T15:32:27.073Z,100792.00
2019-02-27T15:34:55.300Z,100790.00
2019-02-27T15:37:24.962Z,100780.00
2019-02-27T15:39:54.980Z,100775.00
2019-02-27T15:42:25.602Z,100777.00
2019-02-27T15:44:55.274Z,100780.00
2019-02-27T15:47:30.015Z,100776.00
2019-02-27T15:49:56.368Z,100768.00
2019-02-27T15:52:26.038Z,100769.00
2019-02-27T15:54:59.271Z,100772.00
2019-02-27T15:57:28.573Z,100777.00
2019-02-27T15:59:58.248Z,100771.00
2019-02-27T16:02:29.685Z,100778.00
2019-02-27T16:04:59.384Z,100773.00
2019-02-27T16:07:29.058Z,100769.00
2019-02-27T16:10:00.156Z,100783.00
2019-02-27T16:12:31.411Z,100789.00
2019-02-27T16:15:01.097Z,100766.00
2019-02-27T16:17:32.320Z,100753.00
2019-02-27T16:20:02.030Z,100754.00
2019-02-27T16:22:31.700Z,100765.00
2019-02-27T16:25:01.367Z,100759.00
2019-02-27T16:27:32.204Z,100755.00
2019-02-27T16:30:03.576Z,100761.00
2019-02-27T16:32:33.763Z,100755.00
2019-02-27T16:35:07.855Z,100745.00
2019-02-27T16:37:37.537Z,100760.00
2019-02-27T16:40:18.061Z,100756.00
2019-02-27T16:42:48.469Z,100757.00
2019-02-27T16:45:37.623Z,100750.00
2019-02-27T16:48:07.347Z,100748.00
2019-02-27T16:50:39.472Z,100752.00
2019-02-27T16:53:09.430Z,100757.00
2019-02-27T16:55:39.630Z,100748.00
2019-02-27T16:58:10.259Z,100757.00
2019-02-27T17:00:40.243Z,100756.00
2019-02-27T17:03:13.089Z,100753.00
2019-02-27T17:05:43.079Z,100750.00
2019-02-27T17:08:15.082Z,100758.00
2019-02-27T17:10:44.760Z,100753.00
2019-02-27T17:13:16.460Z,100755.00
2019-02-27T17:15:46.163Z,100752.00
2019-02-27T17:18:16.238Z,100755.00
2019-02-27T17:20:47.274Z,100756.00
2019-02-27T17:23:17.250Z,100757.00
2019-02-27T17:25:47.058Z,100748.00
2019-02-27T17:28:18.365Z,100754.00
2019-02-27T17:30:48.125Z,100749.00
2019-02-27T17:33:19.272Z,100750.00
2019-02-27T17:35:48.928Z,100751.00
2019-02-27T17:38:18.635Z,100746.00
2019-02-27T17:40:48.385Z,100746.00
2019-02-27T17:43:18.060Z,100750.00
2019-02-27T17:45:47.764Z,100754.00
2019-02-27T17:48:17.443Z,100739.00
2019-02-27T17:50:47.106Z,100738.00
2019-02-27T17:53:16.799Z,100739.00
2019-02-27T17:55:46.589Z,100746.00
2019-02-27T17:58:17.336Z,100744.00
2019-02-27T18:00:51.072Z,100731.00
2019-02-27T18:03:22.100Z,100732.00
2019-02-27T18:05:51.803Z,100735.00
2019-02-27T18:08:21.539Z,100729.00
2019-02-27T18:10:51.210Z,100729.00
2019-02-27T18:13:20.893Z,100719.00
2019-02-27T18:15:53.241Z,100724.00
2019-02-27T18:18:21.993Z,100717.00
2019-02-27T18:20:51.747Z,100717.00
2019-02-27T18:23:21.949Z,100714.00
2019-02-27T18:25:52.933Z,100717.00
2019-02-27T18:28:23.243Z,100710.00
2019-02-27T18:30:53.758Z,100704.00
2019-02-27T18:33:24.963Z,100717.00
2019-02-27T18:35:56.120Z,100705.00
2019-02-27T18:38:27.821Z,100709.00
2019-02-27T18:40:58.125Z,100708.00
2019-02-27T18:43:30.910Z,100705.00
2019-02-27T18:46:00.736Z,100713.00
2019-02-27T18:48:30.409Z,100716.00
2019-02-27T18:51:01.091Z,100714.00
2019-02-27T18:53:32.225Z,100713.00
2019-02-27T18:56:02.765Z,100713.00
2019-02-27T18:58:32.672Z,100711.00
2019-02-27T19:01:02.747Z,100712.00
2019-02-27T19:03:34.757Z,100712.00
2019-02-27T19:06:04.420Z,100723.00
2019-02-27T19:08:35.188Z,100707.00
2019-02-27T19:11:04.976Z,100704.00
2019-02-27T19:13:34.675Z,100698.00
2019-02-27T19:16:04.394Z,100696.00
2019-02-27T19:18:34.089Z,100700.00
2019-02-27T19:21:03.849Z,100694.00
2019-02-27T19:23:33.564Z,100688.00
2019-02-27T19:26:06.285Z,100687.00
2019-02-27T19:28:42.752Z,100682.00
2019-02-27T19:31:16.770Z,100679.00
2019-02-27T19:33:45.577Z,100670.00
2019-02-27T19:36:19.383Z,100675.00
2019-02-27T19:38:51.102Z,100673.00
2019-02-27T19:41:20.963Z,100667.00
2019-02-27T19:43:55.005Z,100663.00
2019-02-27T19:46:22.281Z,100670.00
2019-02-27T19:48:53.274Z,100662.00
2019-02-27T19:51:23.266Z,100660.00
2019-02-27T19:53:55.317Z,100661.00
2019-02-27T19:56:25.960Z,100655.00
2019-02-27T19:58:58.316Z,100668.00
2019-02-27T20:01:29.013Z,100654.00
2019-02-27T20:03:58.671Z,100655.00
2019-02-27T20:06:28.388Z,100656.00
2019-02-27T20:08:58.081Z,100644.00
2019-02-27T20:11:28.132Z,100654.00
2019-02-27T20:14:02.020Z,100652.00
2019-02-27T20:16:30.692Z,100650.00
2019-02-27T20:19:00.364Z,100640.00
2019-02-27T20:21:30.481Z,100640.00
2019-02-27T20:24:01.425Z,100636.00
2019-02-27T20:26:31.538Z,100642.00
2019-02-27T20:29:04.138Z,100637.00
2019-02-27T20:31:32.713Z,100636.00
2019-02-27T20:34:02.473Z,100631.00
2019-02-27T20:36:34.725Z,100627.00
2019-02-27T20:39:05.273Z,100627.00
2019-02-27T20:41:39.717Z,100612.00
2019-02-27T20:44:06.639Z,100610.00
2019-02-27T20:46:36.321Z,100616.00
2019-02-27T20:49:06.397Z,100611.00
2019-02-27T20:51:39.984Z,100605.00
2019-02-27T20:54:10.972Z,100607.00
2019-02-27T20:56:40.667Z,100604.00
2019-02-27T20:59:11.991Z,100599.00
2019-02-27T21:01:47.220Z,100590.00
2019-02-27T21:04:16.082Z,100592.00
2019-02-27T21:06:47.878Z,100580.00
2019-02-27T21:09:17.202Z,100574.00
2019-02-27T21:11:46.874Z,100577.00
2019-02-27T21:14:16.561Z,100586.00
2019-02-27T21:16:47.109Z,100572.00
2019-02-27T21:19:16.766Z,100571.00
2019-02-27T21:21:46.525Z,100579.00
2019-02-27T21:24:16.445Z,100578.00
2019-02-27T21:26:46.247Z,100574.00
2019-02-27T21:29:19.535Z,100571.00
2019-02-27T21:31:50.681Z,100563.00
2019-02-27T21:34:20.328Z,100551.00
2019-02-27T21:36:51.812Z,100559.00
2019-02-27T21:39:22.576Z,100562.00
2019-02-27T21:41:54.433Z,100563.00
2019-02-27T21:44:25.710Z,100549.00
2019-02-27T21:46:55.638Z,100555.00
2019-02-27T21:49:25.322Z,100555.00
2019-02-27T21:51:54.997Z,100545.00
2019-02-27T21:54:25.011Z,100547.00
2019-02-27T21:56:55.209Z,100544.00
2019-02-27T21:59:24.931Z,100529.00
2019-02-27T22:01:56.283Z,100533.00
2019-02-27T22:04:27.634Z,100536.00
2019-02-27T22:06:58.464Z,100539.00
2019-02-27T22:09:28.913Z,100539.00
2019-02-27T22:12:01.140Z,100535.00
2019-02-27T22:14:30.063Z,100539.00
2019-02-27T22:17:01.589Z,100542.00
2019-02-27T22:19:32.647Z,100542.00
2019-02-27T22:22:05.320Z,100530.00
2019-02-27T22:24:35.726Z,100535.00
2019-02-27T22:27:05.523Z,100535.00
2019-02-27T22:29:35.240Z,100529.00
2019-02-27T22:32:04.922Z,100528.00
2019-02-27T22:34:34.570Z,100525.00
2019-02-27T22:37:04.342Z,100521.00
2019-02-27T22:39:34.088Z,100519.00
2019-02-27T22:42:03.804Z,100513.00
2019-02-27T22:44:33.506Z,100514.00
2019-02-27T22:47:03.176Z,100511.00
2019-02-27T22:49:35.148Z,100504.00
2019-02-27T22:52:04.905Z,100505.00
2019-02-27T22:54:36.848Z,100507.00
2019-02-27T22:57:07.923Z,100499.00
2019-02-27T22:59:38.839Z,100495.00
2019-02-27T23:02:08.526Z,100499.00
2019-02-27T23:04:38.983Z,100493.00
2019-02-27T23:07:08.967Z,100492.00
2019-02-27T23:09:38.827Z,100487.00
2019-02-27T23:12:09.301Z,100482.00
2019-02-27T23:14:40.486Z,100486.00
2019-02-27T23:17:10.161Z,100495.00
2019-02-27T23:19:39.926Z,100495.00
2019-02-27T23:22:10.631Z,100487.00
2019-02-27T23:24:43.709Z,100473.00
2019-02-27T23:27:21.241Z,100495.00
2019-02-27T23:29:51.096Z,100487.00
2019-02-27T23:32:20.767Z,100483.00
2019-02-27T23:34:51.980Z,100480.00
2019-02-27T23:37:29.252Z,100484.00
2019-02-27T23:39:56.272Z,100489.00
2019-02-27T23:42:28.659Z,100472.00
2019-02-27T23:44:58.369Z,100469.00
2019-02-27T23:47:28.691Z,100477.00
2019-02-27T23:49:59.057Z,100467.00
2019-02-27T23:52:28.740Z,100465.00
2019-02-27T23:55:00.179Z,100451.00
2019-02-27T23:57:30.034Z,100454.00
2019-02-27T23:59:59.795Z,100391.00
